createdAt,value
2022-08-26T00:02:13.144Z,31.58
2022-08-26T00:04:45.067Z,34.47
2022-08-26T00:07:14.953Z,29.38
2022-08-26T00:09:47.491Z,29.42
2022-08-26T00:12:16.930Z,32.10
2022-08-26T00:14:47.202Z,28.55
2022-08-26T00:17:16.599Z,27.90
2022-08-26T00:19:45.882Z,26.48
2022-08-26T00:22:20.280Z,25.85
2022-08-26T00:24:51.113Z,24.48
2022-08-26T00:27:20.473Z,24.33
2022-08-26T00:29:50.251Z,27.65
2022-08-26T00:32:20.199Z,26.85
2022-08-26T00:34:49.512Z,35.17
2022-08-26T00:37:18.967Z,29.15
2022-08-26T00:39:48.723Z,25.17
2022-08-26T00:42:18.562Z,27.67
2022-08-26T00:44:47.894Z,28.13
2022-08-26T00:50:02.751Z,24.17
2022-08-26T00:52:32.755Z,20.83
2022-08-26T00:55:34.493Z,30.95
2022-08-26T00:58:09.719Z,21.45
2022-08-26T01:00:39.259Z,25.10
2022-08-26T01:03:12.683Z,30.23
2022-08-26T01:05:43.943Z,23.15
2022-08-26T01:08:13.433Z,22.10
2022-08-26T01:10:43.405Z,23.15
2022-08-26T01:13:14.343Z,19.20
2022-08-26T01:15:50.494Z,23.95
2022-08-26T01:18:20.817Z,17.73
2022-08-26T01:20:58.631Z,18.05
2022-08-26T01:23:33.671Z,21.15
2022-08-26T01:26:15.343Z,19.33
2022-08-26T01:28:51.810Z,16.50
2022-08-26T01:34:04.420Z,17.23
2022-08-26T01:36:34.155Z,15.18
2022-08-26T01:39:05.828Z,19.98
2022-08-26T01:41:38.725Z,16.52
2022-08-26T01:44:10.812Z,12.57
2022-08-26T01:49:13.308Z,14.15
2022-08-26T01:51:44.557Z,12.43
2022-08-26T01:54:15.338Z,10.63
2022-08-26T01:56:44.803Z,13.30
2022-08-26T01:59:17.937Z,13.48
2022-08-26T02:01:50.897Z,9.68
2022-08-26T02:04:31.055Z,11.73
2022-08-26T02:07:00.996Z,15.85
2022-08-26T02:09:31.044Z,10.60
2022-08-26T02:12:03.628Z,9.35
2022-08-26T02:14:43.831Z,9.55
2022-08-26T02:17:14.114Z,11.63
2022-08-26T02:19:48.028Z,9.07
2022-08-26T02:22:21.769Z,10.40
2022-08-26T02:25:02.375Z,6.90
2022-08-26T02:27:35.124Z,11.75
2022-08-26T02:30:10.995Z,8.68
2022-08-26T02:32:41.260Z,9.65
2022-08-26T02:35:12.960Z,9.07
2022-08-26T02:37:42.785Z,8.23
2022-08-26T02:40:15.225Z,10.95
2022-08-26T02:42:45.215Z,10.93
2022-08-26T02:45:23.040Z,10.13
2022-08-26T02:47:54.239Z,10.43
2022-08-26T02:50:27.041Z,7.25
2022-08-26T02:52:56.491Z,7.90
2022-08-26T02:55:25.926Z,9.38
2022-08-26T02:57:55.892Z,8.30
2022-08-26T03:00:25.472Z,11.27
2022-08-26T03:02:55.023Z,6.38
2022-08-26T03:05:24.923Z,10.63
2022-08-26T03:07:55.188Z,8.50
2022-08-26T03:10:24.900Z,9.70
2022-08-26T03:12:55.584Z,6.20
2022-08-26T03:15:25.711Z,9.23
2022-08-26T03:17:55.054Z,13.13
2022-08-26T03:20:26.790Z,5.35
2022-08-26T03:22:56.967Z,8.65
2022-08-26T03:25:27.305Z,6.00
2022-08-26T03:27:56.627Z,6.60
2022-08-26T03:30:44.216Z,8.05
2022-08-26T03:33:16.329Z,10.13
2022-08-26T03:35:47.933Z,6.73
2022-08-26T03:38:21.409Z,10.57
2022-08-26T03:40:51.107Z,7.38
2022-08-26T03:43:24.715Z,10.53
2022-08-26T03:45:54.786Z,10.60
2022-08-26T03:48:24.096Z,9.35
2022-08-26T03:50:54.177Z,9.10
2022-08-26T03:53:23.863Z,12.60
2022-08-26T03:55:53.264Z,6.95
2022-08-26T03:58:24.298Z,6.80
2022-08-26T04:00:55.633Z,6.38
2022-08-26T04:03:38.423Z,9.45
2022-08-26T04:06:08.154Z,9.07
2022-08-26T04:08:39.548Z,8.82
2022-08-26T04:11:10.604Z,6.18
2022-08-26T04:13:40.071Z,8.63
2022-08-26T04:16:12.514Z,6.65
2022-08-26T04:18:46.445Z,7.55
2022-08-26T04:21:16.800Z,12.32
2022-08-26T04:23:47.496Z,7.13
2022-08-26T04:26:17.535Z,6.50
2022-08-26T04:28:46.892Z,12.27
2022-08-26T04:31:19.642Z,5.68
2022-08-26T04:33:51.428Z,6.70
2022-08-26T04:36:21.315Z,4.90
2022-08-26T04:38:50.846Z,11.65
2022-08-26T04:41:22.270Z,11.18
2022-08-26T04:43:51.643Z,5.05
2022-08-26T04:46:25.595Z,5.95
2022-08-26T04:48:56.877Z,8.00
2022-08-26T04:53:59.179Z,5.20
2022-08-26T04:56:35.022Z,2.80
2022-08-26T04:59:06.232Z,4.43
2022-08-26T05:01:39.625Z,11.20
2022-08-26T05:04:09.202Z,2.65
2022-08-26T05:06:38.623Z,5.47
2022-08-26T05:09:09.233Z,5.72
2022-08-26T05:11:38.856Z,4.50
2022-08-26T05:14:08.723Z,4.25
2022-08-26T05:16:40.343Z,6.88
2022-08-26T05:19:13.943Z,4.60
2022-08-26T05:21:48.446Z,6.50
2022-08-26T05:24:18.448Z,5.32
2022-08-26T05:26:48.387Z,4.20
2022-08-26T05:29:18.623Z,4.07
2022-08-26T05:31:49.332Z,9.63
2022-08-26T05:34:20.810Z,7.03
2022-08-26T05:36:50.828Z,2.90
2022-08-26T05:39:21.472Z,5.88
2022-08-26T05:41:50.813Z,7.47
2022-08-26T05:44:22.437Z,6.40
2022-08-26T05:46:51.935Z,7.82
2022-08-26T05:49:22.482Z,4.63
2022-08-26T05:51:55.649Z,5.28
2022-08-26T05:54:25.091Z,6.43
2022-08-26T05:56:54.782Z,6.00
2022-08-26T05:59:24.863Z,4.15
2022-08-26T06:01:55.067Z,5.70
2022-08-26T06:04:29.209Z,4.57
2022-08-26T06:06:58.894Z,7.07
2022-08-26T06:09:28.422Z,7.13
2022-08-26T06:12:01.881Z,10.68
2022-08-26T06:14:31.542Z,8.63
2022-08-26T06:17:00.957Z,7.00
2022-08-26T06:19:32.718Z,7.88
2022-08-26T06:22:23.452Z,4.50
2022-08-26T06:25:05.956Z,4.93
2022-08-26T06:27:37.437Z,7.43
2022-08-26T06:30:12.394Z,4.93
2022-08-26T06:32:41.814Z,3.00
2022-08-26T06:35:13.294Z,3.25
2022-08-26T06:37:43.996Z,4.80
2022-08-26T06:40:13.961Z,3.20
2022-08-26T06:42:43.551Z,4.68
2022-08-26T06:45:13.904Z,4.57
2022-08-26T06:47:43.263Z,4.82
2022-08-26T06:50:12.752Z,6.78
2022-08-26T06:52:44.564Z,5.20
2022-08-26T06:55:13.940Z,8.88
2022-08-26T06:57:43.278Z,3.95
2022-08-26T07:00:13.495Z,6.63
2022-08-26T07:02:46.222Z,2.78
2022-08-26T07:05:16.685Z,3.95
2022-08-26T07:07:46.006Z,8.57
2022-08-26T07:10:15.670Z,8.25
2022-08-26T07:12:47.110Z,6.05
2022-08-26T07:15:16.694Z,2.78
2022-08-26T07:17:46.205Z,4.55
2022-08-26T07:20:15.631Z,3.65
2022-08-26T07:22:46.000Z,5.90
2022-08-26T07:25:15.369Z,5.07
2022-08-26T07:27:45.179Z,7.47
2022-08-26T07:30:15.124Z,8.15
2022-08-26T07:32:45.440Z,4.45
2022-08-26T07:35:14.944Z,6.53
2022-08-26T07:37:45.503Z,4.78
2022-08-26T07:40:14.932Z,2.88
2022-08-26T07:42:45.804Z,5.00
2022-08-26T07:45:15.192Z,4.47
2022-08-26T07:47:44.868Z,3.95
2022-08-26T07:50:14.443Z,7.40
2022-08-26T07:52:44.795Z,5.03
2022-08-26T07:55:14.862Z,7.47
2022-08-26T07:57:44.946Z,6.72
2022-08-26T08:00:18.659Z,7.60
2022-08-26T08:02:49.353Z,4.85
2022-08-26T08:05:21.583Z,4.47
2022-08-26T08:07:53.493Z,10.38
2022-08-26T08:10:30.330Z,7.32
2022-08-26T08:13:01.514Z,3.20
2022-08-26T08:15:33.586Z,4.82
2022-08-26T08:18:06.544Z,6.32
2022-08-26T08:21:04.595Z,5.53
2022-08-26T08:23:35.651Z,5.97
2022-08-26T08:26:08.330Z,5.93
2022-08-26T08:28:38.448Z,10.75
2022-08-26T08:31:08.702Z,3.08
2022-08-26T08:33:38.184Z,4.70
2022-08-26T08:36:09.290Z,5.57
2022-08-26T08:38:40.216Z,5.13
2022-08-26T08:41:48.046Z,4.50
2022-08-26T08:47:22.285Z,5.82
2022-08-26T08:49:51.700Z,6.55
2022-08-26T08:52:40.609Z,9.95
2022-08-26T08:55:13.670Z,5.68
2022-08-26T08:58:02.265Z,9.68
2022-08-26T09:00:42.260Z,5.30
2022-08-26T09:03:43.101Z,5.22
2022-08-26T09:06:17.444Z,5.68
2022-08-26T09:08:50.770Z,3.63
2022-08-26T09:11:21.432Z,11.15
2022-08-26T09:17:03.231Z,2.30
2022-08-26T09:19:50.486Z,7.60
2022-08-26T09:22:38.623Z,9.30
2022-08-26T09:25:12.189Z,5.93
2022-08-26T09:27:47.480Z,12.02
2022-08-26T09:30:36.573Z,6.85
2022-08-26T09:33:10.214Z,2.50
2022-08-26T09:35:43.922Z,8.43
2022-08-26T09:38:29.027Z,5.78
2022-08-26T09:41:00.672Z,5.95
2022-08-26T09:43:31.153Z,6.70
2022-08-26T09:46:22.592Z,4.80
2022-08-26T09:48:53.214Z,5.13
2022-08-26T09:53:57.835Z,3.70
2022-08-26T09:56:40.055Z,4.32
2022-08-26T10:01:46.324Z,6.85
2022-08-26T10:04:30.651Z,6.22
2022-08-26T10:07:07.603Z,5.25
2022-08-26T10:09:44.566Z,12.57
2022-08-26T10:12:19.317Z,8.05
2022-08-26T10:14:53.263Z,6.05
2022-08-26T10:17:34.392Z,5.82
2022-08-26T10:20:22.467Z,7.65
2022-08-26T10:23:02.475Z,10.52
2022-08-26T10:25:37.533Z,9.50
2022-08-26T10:28:52.233Z,6.43
2022-08-26T10:31:28.356Z,5.15
2022-08-26T10:34:00.782Z,2.42
2022-08-26T10:37:13.937Z,4.63
2022-08-26T10:39:47.942Z,7.80
2022-08-26T10:42:48.159Z,5.20
2022-08-26T10:45:25.408Z,8.80
2022-08-26T10:47:58.172Z,5.90
2022-08-26T10:50:33.456Z,9.02
2022-08-26T10:53:19.296Z,3.67
2022-08-26T10:56:18.529Z,7.68
2022-08-26T10:58:59.558Z,6.78
2022-08-26T11:01:54.671Z,5.47
2022-08-26T11:04:48.325Z,6.68
2022-08-26T11:07:39.188Z,11.95
2022-08-26T11:10:36.275Z,7.82
2022-08-26T11:13:07.898Z,2.83
2022-08-26T11:18:35.318Z,7.45
2022-08-26T11:21:04.961Z,9.20
2022-08-26T11:23:50.558Z,6.88
2022-08-26T11:26:35.831Z,6.85
2022-08-26T11:29:13.864Z,4.32
2022-08-26T11:31:43.306Z,4.05
2022-08-26T11:34:16.920Z,4.70
2022-08-26T11:36:49.356Z,5.38
2022-08-26T11:39:31.773Z,4.68
2022-08-26T11:42:41.023Z,4.88
2022-08-26T11:45:28.531Z,4.97
2022-08-26T11:47:58.929Z,7.95
2022-08-26T11:50:30.979Z,6.18
2022-08-26T11:53:07.577Z,5.07
2022-08-26T11:55:45.058Z,4.47
2022-08-26T11:58:18.430Z,4.22
2022-08-26T12:01:11.533Z,3.70
2022-08-26T12:03:51.143Z,7.53
2022-08-26T12:06:38.870Z,4.65
2022-08-26T12:09:23.751Z,4.00
2022-08-26T12:11:55.621Z,6.63
2022-08-26T12:14:29.265Z,6.90
2022-08-26T12:17:12.534Z,7.80
2022-08-26T12:19:42.539Z,3.90
2022-08-26T12:22:31.290Z,6.78
2022-08-26T12:25:04.536Z,5.32
2022-08-26T12:27:44.090Z,6.30
2022-08-26T12:30:22.802Z,6.15
2022-08-26T12:33:22.089Z,5.13
2022-08-26T12:35:56.388Z,3.35
2022-08-26T12:38:28.301Z,7.43
2022-08-26T12:40:58.443Z,4.35
2022-08-26T12:43:47.380Z,2.30
2022-08-26T12:46:32.507Z,4.72
2022-08-26T12:49:03.435Z,8.20
2022-08-26T12:51:41.962Z,6.60
2022-08-26T12:54:18.953Z,8.25
2022-08-26T12:56:48.393Z,6.13
2022-08-26T12:59:26.773Z,6.40
2022-08-26T13:01:57.037Z,3.78
2022-08-26T13:04:46.216Z,5.78
2022-08-26T13:07:21.464Z,4.82
2022-08-26T13:09:53.140Z,5.88
2022-08-26T13:12:37.403Z,2.80
2022-08-26T13:15:08.179Z,6.75
2022-08-26T13:17:37.800Z,3.60
2022-08-26T13:20:07.690Z,4.20
2022-08-26T13:22:37.610Z,2.00
2022-08-26T13:25:07.460Z,3.17
2022-08-26T13:27:37.017Z,4.95
2022-08-26T13:30:08.537Z,3.67
2022-08-26T13:32:38.642Z,4.75
2022-08-26T13:35:13.881Z,5.22
2022-08-26T13:37:43.254Z,3.10
2022-08-26T13:40:13.354Z,3.92
2022-08-26T13:42:49.490Z,3.95
2022-08-26T13:45:19.652Z,5.63
2022-08-26T13:47:49.155Z,2.08
2022-08-26T13:50:18.806Z,2.92
2022-08-26T13:52:48.255Z,1.65
2022-08-26T13:55:17.703Z,8.18
2022-08-26T13:57:47.117Z,6.05
2022-08-26T14:00:17.276Z,7.00
2022-08-26T14:02:46.601Z,3.03
2022-08-26T14:05:16.250Z,4.07
2022-08-26T14:07:46.022Z,5.13
2022-08-26T14:10:15.458Z,5.32
2022-08-26T14:12:45.756Z,3.67
2022-08-26T14:15:16.369Z,9.02
2022-08-26T14:17:46.687Z,4.97
2022-08-26T14:20:21.246Z,3.15
2022-08-26T14:23:12.725Z,3.40
2022-08-26T14:25:43.343Z,4.50
2022-08-26T14:28:12.740Z,4.05
2022-08-26T14:30:44.879Z,3.08
2022-08-26T14:35:48.803Z,3.85
2022-08-26T14:38:19.223Z,0.60
2022-08-26T14:40:48.691Z,3.97
2022-08-26T14:43:18.521Z,4.70
2022-08-26T14:45:47.893Z,3.38
2022-08-26T14:48:17.326Z,3.95
2022-08-26T14:50:47.004Z,7.78
2022-08-26T14:53:30.049Z,8.25
2022-08-26T14:55:59.559Z,3.45
2022-08-26T14:58:33.827Z,2.83
2022-08-26T15:01:04.588Z,6.78
2022-08-26T15:03:33.956Z,3.67
2022-08-26T15:06:03.507Z,3.80
2022-08-26T15:08:36.550Z,4.22
2022-08-26T15:11:06.879Z,1.48
2022-08-26T15:13:36.256Z,2.83
2022-08-26T15:16:06.020Z,5.35
2022-08-26T15:18:35.582Z,8.75
2022-08-26T15:21:07.274Z,2.95
2022-08-26T15:23:38.442Z,6.88
2022-08-26T15:26:11.029Z,3.57
2022-08-26T15:28:43.779Z,2.80
2022-08-26T15:31:13.194Z,3.38
2022-08-26T15:33:42.720Z,2.15
2022-08-26T15:36:12.588Z,4.22
2022-08-26T15:38:46.810Z,5.45
2022-08-26T15:41:16.360Z,2.53
2022-08-26T15:43:45.829Z,2.35
2022-08-26T15:46:16.143Z,4.90
2022-08-26T15:48:45.667Z,2.83
2022-08-26T15:51:29.404Z,4.57
2022-08-26T15:53:59.562Z,1.17
2022-08-26T15:56:31.273Z,5.38
2022-08-26T15:59:01.404Z,1.70
2022-08-26T16:01:31.563Z,6.28
2022-08-26T16:04:01.622Z,2.78
2022-08-26T16:06:35.060Z,0.95
2022-08-26T16:09:04.623Z,2.72
2022-08-26T16:11:35.978Z,1.13
2022-08-26T16:14:07.405Z,1.15
2022-08-26T16:16:41.987Z,3.78
2022-08-26T16:19:11.965Z,1.55
2022-08-26T16:21:42.627Z,2.90
2022-08-26T16:24:12.714Z,7.07
2022-08-26T16:26:44.013Z,3.33
2022-08-26T16:29:18.231Z,8.30
2022-08-26T16:31:47.708Z,3.60
2022-08-26T16:34:17.417Z,2.97
2022-08-26T16:36:46.720Z,1.48
2022-08-26T16:39:16.157Z,2.22
2022-08-26T16:41:45.528Z,4.03
2022-08-26T16:44:14.895Z,3.63
2022-08-26T16:46:46.682Z,5.35
2022-08-26T16:49:16.208Z,2.25
2022-08-26T16:51:45.551Z,3.78
2022-08-26T16:54:15.308Z,3.03
2022-08-26T16:56:44.784Z,3.17
2022-08-26T16:59:14.301Z,3.60
2022-08-26T17:01:43.800Z,2.42
2022-08-26T17:04:13.122Z,9.18
2022-08-26T17:06:42.474Z,4.22
2022-08-26T17:09:11.880Z,2.63
2022-08-26T17:11:41.687Z,6.28
2022-08-26T17:14:14.153Z,5.22
2022-08-26T17:16:43.526Z,3.72
2022-08-26T17:19:12.931Z,1.25
2022-08-26T17:21:42.518Z,1.77
2022-08-26T17:24:11.906Z,3.25
2022-08-26T17:26:44.333Z,0.68
2022-08-26T17:29:22.942Z,0.77
2022-08-26T17:31:52.311Z,2.65
2022-08-26T17:34:22.340Z,3.15
2022-08-26T17:36:52.533Z,3.45
2022-08-26T17:39:21.889Z,2.40
2022-08-26T17:41:51.629Z,1.50
2022-08-26T17:44:20.947Z,3.58
2022-08-26T17:46:50.356Z,3.83
2022-08-26T17:49:19.731Z,1.48
2022-08-26T17:51:49.101Z,3.72
2022-08-26T17:54:18.565Z,7.35
2022-08-26T17:56:47.892Z,1.63
2022-08-26T17:59:17.452Z,1.08
2022-08-26T18:01:47.565Z,3.55
2022-08-26T18:04:17.621Z,3.35
2022-08-26T18:06:47.061Z,3.75
2022-08-26T18:09:16.416Z,3.80
2022-08-26T18:11:45.871Z,2.88
2022-08-26T18:14:15.232Z,5.07
2022-08-26T18:16:44.675Z,3.58
2022-08-26T18:19:16.904Z,1.30
2022-08-26T18:21:46.840Z,4.40
2022-08-26T18:24:16.204Z,3.67
2022-08-26T18:26:49.543Z,4.47
2022-08-26T18:29:20.607Z,2.15
2022-08-26T18:31:51.229Z,4.68
2022-08-26T18:34:21.125Z,4.30
2022-08-26T18:36:51.131Z,3.88
2022-08-26T18:39:23.610Z,4.95
2022-08-26T18:41:55.109Z,6.20
2022-08-26T18:44:25.493Z,7.25
2022-08-26T18:46:55.018Z,2.30
2022-08-26T18:49:24.664Z,4.68
2022-08-26T18:51:54.658Z,4.63
2022-08-26T18:54:24.151Z,2.95
2022-08-26T18:56:53.516Z,2.53
2022-08-26T18:59:28.389Z,3.05
2022-08-26T19:01:59.847Z,1.55
2022-08-26T19:04:29.713Z,4.68
2022-08-26T19:06:59.059Z,3.45
2022-08-26T19:09:28.946Z,3.08
2022-08-26T19:11:58.277Z,4.10
2022-08-26T19:14:27.836Z,1.80
2022-08-26T19:16:57.334Z,5.20
2022-08-26T19:19:26.886Z,2.00
2022-08-26T19:21:56.669Z,3.03
2022-08-26T19:24:28.163Z,2.70
2022-08-26T19:27:00.684Z,1.75
2022-08-26T19:32:02.172Z,5.03
2022-08-26T19:34:31.797Z,8.07
2022-08-26T19:37:01.384Z,3.53
2022-08-26T19:39:30.683Z,4.55
2022-08-26T19:42:00.444Z,1.98
2022-08-26T19:44:42.257Z,7.30
2022-08-26T19:47:15.569Z,3.83
2022-08-26T19:49:45.766Z,6.03
2022-08-26T19:52:15.165Z,4.68
2022-08-26T19:54:44.577Z,3.83
2022-08-26T19:57:14.560Z,6.25
2022-08-26T19:59:46.268Z,7.35
2022-08-26T20:02:16.283Z,3.35
2022-08-26T20:04:45.836Z,5.93
2022-08-26T20:07:18.945Z,3.42
2022-08-26T20:09:49.178Z,4.97
2022-08-26T20:12:18.957Z,6.68
2022-08-26T20:14:48.966Z,4.00
2022-08-26T20:17:18.755Z,3.28
2022-08-26T20:20:00.799Z,6.93
2022-08-26T20:22:30.425Z,4.82
2022-08-26T20:24:59.774Z,4.00
2022-08-26T20:27:34.725Z,3.13
2022-08-26T20:30:09.738Z,4.05
2022-08-26T20:32:40.031Z,2.93
2022-08-26T20:35:11.932Z,4.03
2022-08-26T20:37:42.609Z,4.90
2022-08-26T20:40:14.430Z,4.10
2022-08-26T20:42:43.848Z,2.80
2022-08-26T20:45:13.870Z,5.53
2022-08-26T20:47:43.915Z,6.65
2022-08-26T20:50:13.342Z,6.95
2022-08-26T20:52:42.687Z,5.15
2022-08-26T20:55:12.263Z,6.72
2022-08-26T20:57:43.395Z,5.10
2022-08-26T21:00:16.300Z,6.63
2022-08-26T21:02:46.999Z,3.88
2022-08-26T21:05:16.405Z,2.65
2022-08-26T21:07:45.779Z,3.63
2022-08-26T21:10:15.372Z,5.53
2022-08-26T21:12:45.357Z,4.18
2022-08-26T21:15:16.392Z,5.25
2022-08-26T21:17:46.074Z,6.43
2022-08-26T21:20:15.411Z,3.75
2022-08-26T21:22:44.825Z,3.80
2022-08-26T21:25:14.273Z,4.80
2022-08-26T21:27:43.639Z,9.00
2022-08-26T21:30:13.541Z,5.63
2022-08-26T21:32:42.932Z,5.60
2022-08-26T21:35:12.704Z,3.95
2022-08-26T21:37:42.123Z,5.22
2022-08-26T21:40:12.275Z,6.05
2022-08-26T21:42:41.735Z,2.47
2022-08-26T21:45:13.377Z,1.20
2022-08-26T21:47:42.880Z,6.00
2022-08-26T21:50:13.612Z,4.93
2022-08-26T21:52:42.933Z,3.33
2022-08-26T21:55:12.756Z,3.10
2022-08-26T21:57:42.144Z,7.22
2022-08-26T22:00:14.091Z,6.35
2022-08-26T22:02:43.636Z,5.15
2022-08-26T22:05:13.097Z,2.63
2022-08-26T22:07:42.487Z,2.83
2022-08-26T22:10:11.925Z,5.05
2022-08-26T22:12:44.951Z,3.67
2022-08-26T22:15:15.831Z,2.53
2022-08-26T22:17:45.620Z,3.17
2022-08-26T22:20:16.518Z,5.25
2022-08-26T22:22:46.242Z,4.45
2022-08-26T22:25:16.767Z,4.25
2022-08-26T22:27:46.204Z,7.45
2022-08-26T22:30:15.850Z,6.50
2022-08-26T22:32:45.885Z,4.28
2022-08-26T22:35:29.135Z,4.45
2022-08-26T22:37:59.476Z,3.50
2022-08-26T22:40:29.732Z,4.57
2022-08-26T22:43:00.318Z,5.10
2022-08-26T22:45:31.350Z,7.47
2022-08-26T22:48:05.057Z,7.45
2022-08-26T22:50:36.808Z,3.90
2022-08-26T22:53:06.195Z,2.92
2022-08-26T22:55:35.687Z,4.80
2022-08-26T22:58:05.088Z,2.53
2022-08-26T23:00:35.211Z,5.32
2022-08-26T23:03:05.803Z,2.85
2022-08-26T23:05:35.731Z,6.53
2022-08-26T23:08:05.356Z,5.40
2022-08-26T23:10:37.845Z,6.95
2022-08-26T23:13:08.527Z,4.40
2022-08-26T23:15:38.507Z,3.47
2022-08-26T23:18:08.096Z,3.17
2022-08-26T23:23:10.891Z,4.22
2022-08-26T23:25:41.596Z,3.85
2022-08-26T23:28:12.503Z,5.75
2022-08-26T23:30:41.905Z,5.95
2022-08-26T23:33:11.180Z,1.70
2022-08-26T23:35:38.553Z,3.15
2022-08-26T23:38:11.777Z,11.07
2022-08-26T23:40:44.883Z,1.55
2022-08-26T23:43:16.588Z,8.02
2022-08-26T23:45:46.035Z,6.22
2022-08-26T23:48:15.357Z,5.18
2022-08-26T23:51:01.255Z,3.17
2022-08-26T23:53:30.603Z,3.35
2022-08-26T23:55:59.900Z,4.50
2022-08-26T23:58:29.594Z,5.40
